Login to view Products
 
Monday, December 06, 2021 (11:01 UTC) 11
Abu Dhabi International Airport
Last Updated: 06-Dec-2021 (11:00Z)
Wind Dir/Speed: NW at 10 kt
Temperature: 26.2°C
Rel. Humidity: 46 %
Pressure: 1016.2 hPa
Visibility: 10000 m
ACTUALS:
  • METAR OMAA 061100Z 33009KT 290V010 CAVOK 26/14 Q1016 NOSIG
  • TAF OMAA 060500Z 0606/0712 20005KT 8000 NSC BECMG 0608/0610 31010KT BECMG 0617/0619 VRB02KT BECMG 0708/0710 31010KT=

2